Vaasa Airport

EFVA · 博滕區, 芬兰

罗盘
风向 的 风向 的 风向 到 风向 150° Vaasa Airport 16/34
风: 5 kt, 2 beaufort

5 kt

1 kt
改变
0 ft 1.000 2.000 3.000 4.000 5.000
Cloud Cloud Cloud Cloud Cloud Cloud
BKN 3.400
METAR EFVA 211350Z AUTO 15005KT 120V180 9999 BKN034 21/14 Q1014

METAR Vaasa Airport - EFVA/VAA

Vaasa Airport是,芬兰中的中型机场。 该机场位于纬度63,05070和经度21,76220。 该机场有一条跑道: 16/34. 本场的ICAO机场代码为EFVA。 该机场的IATA代码为VAA。 机场在Finland FIR中。

该航空气象观测是针对Vaasa Airport在2024年7月21日 16:50, 当地时间进行的。

机场观察

风向为150°,速度为5 kt。 风向在120°和180°之间变化。

可见度为10 km 或者更多。

有碎云在3.400 ft的高度。 破损或更高的上限为3.400 ft。

温度和风寒是21 °C。 露点为14 °C,相对湿度为64%。 海平面上的气压为1014 hPa (QNH)。

白天

今天,太阳从04:20升起,在22:58降落。 这适用于Vaasa Airport,世界夏令时可能有所不同。 当地时间与世界标准时间之间的时差为+3 小时。 夏令时目前正在进行中。

公司介绍

在这个机场,你可以找到跳伞中心。 本场上唯一已知的公司是Vaasan Laskuvarjokerho - DZ Vaasa。

体会

到Vliegles.nl去找飞行课程,跳伞和其他飞行体验。 浏览页面,了解Vaasa Airport附近所有可用的活动。 你也可以使用搜索功能来寻找你所在地附近的特定飞行课程、跳伞或其他飞行体验。

跑道

Id 标题 侧风 逆风 侧风 %
16/34 163°-343° 1 kt 5 kt 22 %

逆风成分最大的方向会被突出显示,并用于横风计算。 这并不一定意味着这个方向在使用。

乌云

3.400 ft BKN 碎云

温度 & 天气

温度 21 °C
露点 14 °C
相对湿度 64%
Kp-index 0 (0-9)

白天

日出
04:20
中午
13:39
日落
22:58 (5:54)

小工具

你想在你的网站上有一个关于Vaasa Airport的当前航空天气(METAR)的小部件吗?

显示HTML代码
报告变更